Time;durP1;ratioP1;P1;durP2;ratioP2;P2;SDS_P1;SDS_P2;PMS_P1;PMS_P2;Temp;Humidity;BMP_temperature;BMP_pressure;BME280_temperature;BME280_humidity;BME280_pressure;Samples;Min_cycle;Max_cycle;Signal;HPM_P1;HPM_P2
2022/07/20 00:00:39;;;;;;;;;27.00;23.75;;;;;30.12;39.78;100832.25;5056693;28;45403;-54
2022/07/20 00:03:06;;;;;;;;;23.80;23.80;;;;;30.12;40.00;100842.72;5057019;28;45356;-51
2022/07/20 00:05:31;;;;;;;;;19.00;18.00;;;;;30.10;39.41;100847.91;5058471;28;45190;-54
2022/07/20 00:07:57;;;;;;;;;22.25;21.25;;;;;30.08;39.86;100858.75;5057683;28;47231;-52
2022/07/20 00:13:06;;;;;;;;;20.80;20.60;;;;;30.05;39.58;100851.72;5058012;28;45310;-51
2022/07/20 00:15:32;;;;;;;;;26.25;23.25;;;;;30.07;39.50;100845.72;5058340;28;45427;-55
2022/07/20 00:17:57;;;;;;;;;25.75;22.00;;;;;30.10;39.22;100874.19;5057391;28;45476;-54
2022/07/20 00:20:22;;;;;;;;;26.50;26.25;;;;;29.72;39.55;100897.69;5057539;28;45428;-54
2022/07/20 00:22:48;;;;;;;;;26.00;26.00;;;;;29.54;40.32;100925.16;5056619;28;45464;-52
2022/07/20 00:25:13;;;;;;;;;20.50;20.00;;;;;29.41;41.24;100969.41;5058257;28;45355;-52
2022/07/20 00:27:39;;;;;;;;;26.75;24.75;;;;;29.49;42.14;100991.19;5056263;28;46090;-52
2022/07/20 00:30:05;;;;;;;;;27.75;24.50;;;;;29.29;41.66;100981.41;5058041;28;45468;-51
2022/07/20 00:32:35;;;;;;;;;23.20;23.00;;;;;29.35;41.47;101005.50;5056731;28;45321;-51
2022/07/20 00:35:01;;;;;;;;;21.40;21.40;;;;;29.53;41.17;101028.97;5057648;28;45367;-51
2022/07/20 00:37:26;;;;;;;;;25.75;24.50;;;;;29.18;42.18;100997.88;5075878;28;45807;-55
2022/07/20 00:39:52;;;;;;;;;24.50;22.75;;;;;29.31;42.69;100996.88;5078122;27;45514;-55
2022/07/20 00:42:17;;;;;;;;;21.75;20.25;;;;;29.32;42.33;100958.97;5045583;27;45734;-53
2022/07/20 00:44:43;;;;;;;;;23.00;23.00;;;;;29.29;44.17;100917.22;5078192;28;45365;-54
2022/07/20 00:47:08;;;;;;;;;22.75;22.00;;;;;29.40;42.85;100912.03;5059358;28;46927;-58
2022/07/20 00:49:34;;;;;;;;;24.00;23.50;;;;;29.30;44.02;100896.28;5076437;28;45394;-53
2022/07/20 00:51:59;;;;;;;;;23.75;22.25;;;;;29.11;44.04;100861.91;5077715;27;45384;-54
2022/07/20 00:54:25;;;;;;;;;27.75;25.25;;;;;29.30;44.90;100899.09;5077129;28;45334;-53
2022/07/20 00:56:50;;;;;;;;;11.25;10.00;;;;;29.28;44.58;100883.69;5077755;27;45429;-55
2022/07/20 00:59:15;;;;;;;;;19.25;19.25;;;;;29.29;45.21;100883.31;5059562;28;45422;-55
2022/07/20 01:01:41;;;;;;;;;21.50;20.75;;;;;29.12;46.20;100843.84;5077726;27;45926;-52
2022/07/20 01:04:06;;;;;;;;;25.50;24.50;;;;;29.27;44.96;100873.50;5077847;28;45368;-57
2022/07/20 01:06:32;;;;;;;;;23.25;23.25;;;;;29.18;45.32;100863.06;5076459;28;47112;-53
2022/07/20 01:08:58;;;;;;;;;25.25;23.00;;;;;29.07;44.98;100845.66;5077336;27;45408;-53
2022/07/20 01:11:23;;;;;;;;;22.75;22.75;;;;;28.73;45.33;100790.03;5076422;28;45429;-55
2022/07/20 01:13:48;;;;;;;;;26.25;23.75;;;;;28.87;45.86;100809.66;5077305;28;45399;-54
2022/07/20 01:16:14;;;;;;;;;29.25;26.25;;;;;29.01;45.95;100852.66;5077474;27;46960;-55
2022/07/20 01:18:39;;;;;;;;;27.00;26.25;;;;;29.01;46.49;100857.47;5077337;28;45320;-54
2022/07/20 01:21:06;;;;;;;;;24.75;24.50;;;;;28.79;46.98;100831.06;5076204;28;45378;-58
2022/07/20 01:23:32;;;;;;;;;32.60;30.60;;;;;28.86;47.30;100847.53;5076032;28;45621;-53
2022/07/20 01:25:57;;;;;;;;;33.00;30.00;;;;;28.85;47.68;100852.34;5075910;28;45865;-54
2022/07/20 01:28:23;;;;;;;;;34.25;32.00;;;;;28.83;48.11;100851.81;5076898;27;45446;-57
2022/07/20 01:30:48;;;;;;;;;35.75;32.25;;;;;28.86;47.78;100839.88;5076901;27;45338;-53
2022/07/20 01:33:14;;;;;;;;;43.00;35.50;;;;;28.87;48.21;100835.88;5075965;28;45402;-54
2022/07/20 01:35:39;;;;;;;;;43.75;35.00;;;;;28.88;48.58;100836.72;5076839;27;45981;-57
2022/07/20 01:38:05;;;;;;;;;42.00;36.00;;;;;28.76;48.82;100826.09;5075487;28;45749;-56
2022/07/20 01:40:30;;;;;;;;;47.75;40.00;;;;;28.74;49.46;100832.06;5076671;27;45305;-52
2022/07/20 01:42:56;;;;;;;;;48.25;41.00;;;;;28.62;49.91;100823.44;5077152;27;45360;-53
2022/07/20 01:45:21;;;;;;;;;43.50;35.25;;;;;28.55;49.80;100840.91;5063923;28;46538;-57
2022/07/20 01:47:47;;;;;;;;;45.00;37.50;;;;;28.55;50.94;100861.47;5047216;28;45317;-55
2022/07/20 01:50:12;;;;;;;;;46.75;38.50;;;;;28.58;50.28;100865.63;5035149;28;45311;-52
2022/07/20 01:52:38;;;;;;;;;51.50;42.75;;;;;28.65;50.64;100873.59;5055422;28;45334;-53
2022/07/20 01:55:04;;;;;;;;;49.75;41.25;;;;;28.70;50.60;100881.06;5054051;28;45426;-57
2022/07/20 01:57:30;;;;;;;;;48.25;40.00;;;;;28.74;50.45;100884.88;5052870;28;45335;-52
2022/07/20 01:59:55;;;;;;;;;48.40;39.80;;;;;28.51;50.63;100874.59;5056423;28;45250;-52
2022/07/20 02:02:21;;;;;;;;;50.50;40.25;;;;;28.52;50.12;100910.13;5055521;28;45689;-56
2022/07/20 02:04:46;;;;;;;;;50.75;42.25;;;;;28.65;50.26;100950.66;5055920;28;46810;-55
2022/07/20 02:07:12;;;;;;;;;51.25;42.25;;;;;28.69;50.48;100981.88;5054920;28;45823;-54
2022/07/20 02:09:37;;;;;;;;;48.25;41.25;;;;;28.72;50.06;100972.75;5056115;28;45424;-51
2022/07/20 02:12:03;;;;;;;;;54.25;44.25;;;;;28.74;49.73;100938.53;5056609;28;45568;-56
2022/07/20 02:14:29;;;;;;;;;51.00;42.00;;;;;28.67;49.98;100919.28;5055528;28;46304;-55
2022/07/20 02:16:55;;;;;;;;;50.00;42.50;;;;;28.61;50.17;100935.56;5056063;28;45406;-57
2022/07/20 02:19:20;;;;;;;;;53.75;44.25;;;;;28.44;49.93;100927.06;5055764;28;45313;-55
2022/07/20 02:21:46;;;;;;;;;50.25;41.50;;;;;28.59;50.08;100928.56;5056017;28;45381;-56
2022/07/20 02:24:11;;;;;;;;;52.75;42.25;;;;;28.39;50.55;100903.47;5054309;28;46099;-53
2022/07/20 02:26:37;;;;;;;;;49.75;40.25;;;;;28.39;50.35;100920.41;5056026;28;45278;-56
2022/07/20 02:29:02;;;;;;;;;48.00;41.00;;;;;28.51;50.82;100952.78;5055066;28;45588;-55
2022/07/20 02:31:28;;;;;;;;;54.25;44.50;;;;;28.52;50.33;100955.31;5056229;28;45248;-56
2022/07/20 02:33:53;;;;;;;;;53.50;45.50;;;;;28.35;50.69;100960.91;5055866;28;46461;-55
2022/07/20 02:36:19;;;;;;;;;55.75;44.50;;;;;28.36;50.18;100974.69;5058233;28;45330;-54
2022/07/20 02:38:44;;;;;;;;;53.00;44.50;;;;;28.38;49.66;100978.00;5076416;28;45293;-55
2022/07/20 02:41:10;;;;;;;;;58.00;46.75;;;;;28.18;50.78;100953.19;5076502;27;45247;-56
2022/07/20 02:43:36;;;;;;;;;52.00;42.50;;;;;28.20;50.47;100979.94;5075716;27;45544;-53
2022/07/20 02:46:02;;;;;;;;;50.50;41.50;;;;;28.09;50.43;100979.41;5061690;28;45363;-52
2022/07/20 02:48:27;;;;;;;;;51.00;43.00;;;;;28.12;50.48;101000.47;5056869;28;45390;-55
2022/07/20 02:50:53;;;;;;;;;55.50;44.25;;;;;28.03;51.02;101010.88;5076244;27;45355;-55
2022/07/20 02:53:18;;;;;;;;;55.50;45.50;;;;;27.81;51.80;101002.16;5091798;27;48716;-53
2022/07/20 02:55:44;;;;;;;;;53.25;43.75;;;;;27.77;51.12;100986.19;5076602;28;45474;-52
2022/07/20 02:58:10;;;;;;;;;57.50;45.75;;;;;27.95;50.86;101032.25;5078482;28;45434;-51
2022/07/20 03:00:35;;;;;;;;;58.00;46.25;;;;;27.98;50.05;101048.53;5079794;27;45293;-58
2022/07/20 03:03:01;;;;;;;;;56.00;45.25;;;;;28.00;50.01;101069.59;5078195;28;45666;-56
2022/07/20 03:05:27;;;;;;;;;56.25;45.00;;;;;27.90;50.13;101086.78;5061253;28;45361;-56
2022/07/20 03:07:52;;;;;;;;;52.50;43.25;;;;;27.86;50.92;101097.88;5061562;28;45293;-57
2022/07/20 03:10:18;;;;;;;;;55.50;45.25;;;;;27.66;51.49;101101.22;5078528;28;45666;-52
2022/07/20 03:12:43;;;;;;;;;56.75;46.25;;;;;27.73;51.37;101093.16;5078075;28;45473;-54
2022/07/20 03:15:09;;;;;;;;;54.25;45.00;;;;;27.87;51.08;101098.72;5060637;28;45396;-54
2022/07/20 03:17:47;;;;;;;;;50.00;42.25;;;;;27.85;51.79;101098.22;5079529;28;45352;-55
2022/07/20 03:20:17;;;;;;;;;53.50;44.00;;;;;27.49;51.89;101070.91;5077989;28;45660;-53
2022/07/20 03:22:43;;;;;;;;;57.25;45.50;;;;;27.67;51.87;101071.88;5079263;28;45576;-53
2022/07/20 03:25:09;;;;;;;;;54.00;44.25;;;;;27.82;52.06;101088.41;5077277;28;45382;-53
2022/07/20 03:27:34;;;;;;;;;51.75;44.00;;;;;27.87;52.13;101087.44;5079316;27;45259;-57
2022/07/20 03:30:00;;;;;;;;;53.00;44.25;;;;;27.87;52.02;101079.81;5078986;27;45298;-55
2022/07/20 03:32:25;;;;;;;;;55.75;45.25;;;;;27.82;51.92;101079.13;5078972;28;45389;-57
2022/07/20 03:34:50;;;;;;;;;54.25;44.25;;;;;27.73;52.75;101074.25;5079023;27;45234;-55
2022/07/20 03:37:16;;;;;;;;;51.25;43.00;;;;;27.77;52.32;101082.91;5079035;27;45290;-53
2022/07/20 03:39:41;;;;;;;;;56.00;45.75;;;;;27.84;51.95;101090.91;5079103;27;45562;-54
2022/07/20 03:42:07;;;;;;;;;51.75;42.50;;;;;27.90;52.03;101078.34;5078655;27;45918;-54
2022/07/20 03:44:32;;;;;;;;;56.00;43.00;;;;;27.93;52.11;101079.69;5078839;28;45382;-56
2022/07/20 03:46:58;;;;;;;;;52.00;42.75;;;;;27.81;52.84;101072.66;5077892;28;45359;-56
2022/07/20 03:49:23;;;;;;;;;46.75;39.50;;;;;27.85;52.31;101086.94;5079030;27;45406;-55
2022/07/20 03:51:49;;;;;;;;;50.75;41.25;;;;;27.95;53.00;101109.22;5048753;27;46514;-57
2022/07/20 03:54:14;;;;;;;;;50.50;40.00;;;;;27.92;51.85;101107.06;5078779;27;45515;-56
2022/07/20 03:56:40;;;;;;;;;49.00;40.00;;;;;27.89;51.86;101116.16;5077637;28;45565;-55
2022/07/20 03:59:11;;;;;;;;;47.25;40.00;;;;;27.87;52.36;101146.66;5078435;27;45372;-57
2022/07/20 04:01:36;;;;;;;;;49.40;39.60;;;;;27.81;52.40;101165.72;5077303;28;46737;-53
2022/07/20 04:04:02;;;;;;;;;44.25;36.75;;;;;27.74;52.64;101177.41;5077238;28;45377;-54
2022/07/20 04:06:28;;;;;;;;;40.25;34.25;;;;;27.48;50.76;101151.81;5077196;28;45406;-54
2022/07/20 04:08:53;;;;;;;;;40.50;34.75;;;;;27.49;51.81;101144.16;5078970;27;45411;-55
2022/07/20 04:11:19;;;;;;;;;36.00;33.25;;;;;27.52;51.36;101138.72;5077219;28;46735;-56
2022/07/20 04:13:44;;;;;;;;;40.50;34.50;;;;;27.44;51.38;101131.03;5078330;27;45508;-55
2022/07/20 04:16:10;;;;;;;;;32.50;31.50;;;;;27.37;52.07;101119.38;5078446;28;45357;-52
2022/07/20 04:18:35;;;;;;;;;31.00;29.75;;;;;27.34;51.50;101104.75;5078670;27;45498;-53
2022/07/20 04:21:01;;;;;;;;;31.25;28.75;;;;;27.31;50.71;101115.81;5078250;27;45944;-57
2022/07/20 04:23:26;;;;;;;;;30.75;29.75;;;;;27.28;49.85;101089.16;5077725;27;45317;-54
2022/07/20 04:25:52;;;;;;;;;30.25;28.00;;;;;27.26;49.61;101076.53;5078403;28;45439;-54
2022/07/20 04:28:17;;;;;;;;;28.25;28.25;;;;;27.23;49.68;101055.47;5078447;27;45862;-53
2022/07/20 04:30:44;;;;;;;;;33.75;30.00;;;;;27.20;49.88;101076.63;5078019;28;46763;-53
2022/07/20 04:33:09;;;;;;;;;26.20;23.40;;;;;27.07;49.02;101074.69;5078205;27;45279;-54
2022/07/20 04:35:35;;;;;;;;;22.75;22.00;;;;;27.06;48.36;101054.13;5076940;28;45385;-63
2022/07/20 04:38:00;;;;;;;;;26.75;21.50;;;;;27.06;48.23;101050.50;5076962;28;45193;-63
2022/07/20 04:40:26;;;;;;;;;24.25;22.75;;;;;26.96;49.44;101022.56;5077472;27;46304;-62
2022/07/20 04:42:51;;;;;;;;;27.25;21.50;;;;;27.02;48.92;101035.38;5076966;28;45253;-58
2022/07/20 04:45:17;;;;;;;;;24.75;23.00;;;;;26.82;49.54;100998.06;5077012;28;45260;-62
2022/07/20 04:47:42;;;;;;;;;27.00;22.25;;;;;26.97;50.16;101010.16;5078294;28;45265;-61
2022/07/20 04:50:08;;;;;;;;;26.75;21.25;;;;;26.99;48.83;101024.75;5077544;28;45922;-62
2022/07/20 04:52:34;;;;;;;;;23.50;20.75;;;;;26.79;49.23;101018.41;5045912;28;45579;-63
2022/07/20 04:54:59;;;;;;;;;24.50;24.50;;;;;26.87;49.68;101042.16;5077867;27;45494;-62
2022/07/20 04:57:25;;;;;;;;;24.50;22.25;;;;;26.76;50.51;101047.19;5076608;28;45376;-64
2022/07/20 04:59:50;;;;;;;;;25.25;20.75;;;;;26.90;48.27;101098.69;5076418;28;46669;-64
2022/07/20 05:02:16;;;;;;;;;19.25;19.25;;;;;26.81;48.37;101128.72;5076285;28;45488;-62
2022/07/20 05:04:41;;;;;;;;;26.00;23.75;;;;;26.83;49.14;101137.69;5076454;28;45445;-64
2022/07/20 05:07:07;;;;;;;;;23.25;23.25;;;;;26.74;49.11;101119.88;5077753;27;45389;-64
2022/07/20 05:09:32;;;;;;;;;19.00;17.75;;;;;26.78;49.51;101149.88;5077609;27;45888;-64
2022/07/20 05:11:58;;;;;;;;;21.75;20.50;;;;;26.82;50.53;101152.09;5059618;28;45447;-63
2022/07/20 05:14:23;;;;;;;;;23.50;23.50;;;;;26.72;49.90;101108.09;5077403;28;45342;-63
2022/07/20 05:16:49;;;;;;;;;24.75;23.75;;;;;26.81;49.87;101120.28;5059761;28;45342;-64
2022/07/20 05:19:14;;;;;;;;;24.00;21.50;;;;;26.78;49.93;101132.16;5075680;28;46516;-64
2022/07/20 05:21:40;;;;;;;;;24.00;22.75;;;;;26.72;49.82;101120.16;5077500;28;45341;-63
2022/07/20 05:24:06;;;;;;;;;22.25;20.25;;;;;26.66;50.42;101082.03;5075855;28;45449;-65
2022/07/20 05:26:31;;;;;;;;;22.75;20.25;;;;;26.64;50.01;101023.22;5076197;28;45670;-63
2022/07/20 05:28:57;;;;;;;;;22.00;19.75;;;;;26.64;50.83;101028.84;5075846;28;46534;-62
2022/07/20 05:31:22;;;;;;;;;22.00;21.25;;;;;26.44;51.18;101009.59;5058810;28;45310;-64
2022/07/20 05:33:48;;;;;;;;;24.00;22.25;;;;;26.51;50.19;100998.75;5092838;27;45611;-63
2022/07/20 05:36:13;;;;;;;;;18.00;18.00;;;;;26.49;50.09;101020.75;5077218;27;45329;-63
2022/07/20 05:38:39;;;;;;;;;20.00;18.50;;;;;26.34;50.17;101038.78;5075204;28;46437;-65
2022/07/20 05:41:05;;;;;;;;;22.50;21.75;;;;;26.27;50.46;101047.66;5075011;28;45378;-62
2022/07/20 05:43:30;;;;;;;;;21.25;19.00;;;;;26.28;50.65;101057.75;5075807;28;45405;-64
2022/07/20 05:45:55;;;;;;;;;19.25;17.75;;;;;26.37;50.47;101080.38;5076974;27;45367;-65
2022/07/20 05:48:21;;;;;;;;;23.75;21.00;;;;;26.33;50.01;101066.09;5076797;27;46493;-63
2022/07/20 05:50:46;;;;;;;;;23.75;22.75;;;;;26.32;50.28;101047.56;5076344;27;45388;-63
2022/07/20 05:53:12;;;;;;;;;21.50;18.50;;;;;26.11;49.29;101047.06;5058627;28;45526;-65
2022/07/20 05:55:38;;;;;;;;;23.50;20.75;;;;;26.23;49.30;101074.72;5076976;27;45362;-63
2022/07/20 05:58:04;;;;;;;;;21.00;19.25;;;;;26.26;49.92;101102.25;5058379;28;45925;-64
2022/07/20 06:00:30;;;;;;;;;24.20;24.20;;;;;26.29;50.25;101095.16;5075199;28;45394;-63
2022/07/20 06:02:55;;;;;;;;;18.00;17.50;;;;;26.23;50.44;101098.06;5058650;28;45204;-63
2022/07/20 06:05:21;;;;;;;;;21.50;19.50;;;;;26.22;50.93;101087.97;5037875;27;45835;-63
2022/07/20 06:07:46;;;;;;;;;20.50;19.25;;;;;26.15;50.56;101055.72;5070700;28;46601;-63
2022/07/20 06:10:12;;;;;;;;;23.25;20.50;;;;;26.16;50.70;101051.75;5075330;28;45348;-62
2022/07/20 06:12:38;;;;;;;;;22.50;21.50;;;;;25.92;50.81;101055.59;5075039;28;45414;-64
2022/07/20 06:15:04;;;;;;;;;22.50;22.50;;;;;26.21;51.19;101094.69;5075082;28;45393;-62
2022/07/20 06:17:38;;;;;;;;;22.40;20.00;;;;;26.27;51.46;101080.56;5074986;28;46805;-63
2022/07/20 06:20:05;;;;;;;;;28.00;22.00;;;;;26.19;51.26;101065.22;5074398;28;45445;-64
2022/07/20 06:22:31;;;;;;;;;21.00;19.00;;;;;26.39;51.51;101120.25;5071145;27;45514;-62
2022/07/20 06:24:56;;;;;;;;;23.50;21.25;;;;;26.27;51.82;101134.84;5057934;28;45399;-64
2022/07/20 06:27:22;;;;;;;;;18.25;17.50;;;;;26.16;52.11;101145.41;5076413;27;46143;-63
2022/07/20 06:29:47;;;;;;;;;17.75;17.75;;;;;26.18;52.57;101176.03;5076041;27;45322;-62
2022/07/20 06:32:13;;;;;;;;;20.75;19.25;;;;;26.02;52.60;101164.22;5075691;27;45550;-63
2022/07/20 06:34:38;;;;;;;;;23.00;22.75;;;;;26.08;52.73;101182.66;5076834;27;45201;-62
2022/07/20 06:37:04;;;;;;;;;19.50;19.50;;;;;26.17;53.02;101194.91;5074301;28;45644;-60
2022/07/20 06:39:29;;;;;;;;;20.75;20.50;;;;;25.99;53.34;101163.69;5076177;27;45333;-61
2022/07/20 06:41:55;;;;;;;;;22.25;21.25;;;;;25.95;54.19;101170.25;5076277;27;45345;-63
2022/07/20 06:44:20;;;;;;;;;23.25;22.50;;;;;26.01;54.08;101199.09;5076593;28;45277;-63
2022/07/20 06:46:46;;;;;;;;;19.25;19.25;;;;;25.96;53.73;101192.44;5075613;27;45613;-62
2022/07/20 06:49:11;;;;;;;;;15.50;15.00;;;;;25.90;54.00;101188.03;5076191;27;45194;-61
2022/07/20 06:51:37;;;;;;;;;18.75;17.50;;;;;25.21;52.06;101102.22;5076045;27;45807;-63
2022/07/20 06:54:03;;;;;;;;;21.75;20.75;;;;;25.61;52.13;101157.28;5075053;28;45417;-64
2022/07/20 06:56:28;;;;;;;;;24.40;22.40;;;;;25.48;52.05;101148.44;5075808;27;46960;-63
2022/07/20 06:58:54;;;;;;;;;23.25;23.25;;;;;25.32;52.79;101147.84;5058174;28;45425;-63
2022/07/20 07:01:20;;;;;;;;;20.40;20.20;;;;;24.97;53.43;101117.13;5076017;27;45404;-62
2022/07/20 07:03:45;;;;;;;;;21.75;21.25;;;;;24.88;53.96;101113.34;5076188;27;45342;-62
2022/07/20 07:06:11;;;;;;;;;25.50;22.00;;;;;24.90;53.86;101144.75;5074566;28;45588;-63
2022/07/20 07:08:36;;;;;;;;;21.50;20.75;;;;;24.94;54.39;101150.59;5057943;28;45383;-62
2022/07/20 07:11:02;;;;;;;;;23.50;19.50;;;;;24.66;54.84;101100.66;5075973;27;45441;-62
2022/07/20 07:13:27;;;;;;;;;19.50;19.50;;;;;24.91;54.97;101135.19;5075953;28;45365;-65
2022/07/20 07:15:53;;;;;;;;;25.25;24.00;;;;;24.83;55.25;101131.09;5076164;27;45790;-60
2022/07/20 07:18:18;;;;;;;;;21.75;21.50;;;;;24.92;55.71;101153.72;5074722;28;45785;-63
2022/07/20 07:20:44;;;;;;;;;20.25;18.50;;;;;25.02;55.28;101164.78;5055448;27;45258;-61
2022/07/20 07:23:10;;;;;;;;;20.75;20.75;;;;;24.83;54.54;101131.09;5068626;27;46084;-61
2022/07/20 07:25:36;;;;;;;;;22.20;22.20;;;;;24.74;55.24;101114.03;5074012;28;48021;-62
2022/07/20 07:28:01;;;;;;;;;20.50;20.25;;;;;24.99;55.09;101123.31;5075518;27;45347;-63
2022/07/20 07:30:27;;;;;;;;;24.25;23.50;;;;;24.86;55.42;101133.28;5074180;28;45406;-62
2022/07/20 07:32:52;;;;;;;;;22.50;21.50;;;;;24.94;55.36;101162.66;5074413;28;45417;-63
2022/07/20 07:35:18;;;;;;;;;23.25;20.50;;;;;24.98;55.39;101157.28;5057299;28;46468;-61
2022/07/20 07:37:43;;;;;;;;;23.50;23.00;;;;;24.86;54.82;101122.03;5074598;27;45403;-61
2022/07/20 07:40:09;;;;;;;;;24.50;23.25;;;;;24.89;55.21;101145.88;5075410;28;45273;-62
2022/07/20 07:42:35;;;;;;;;;27.00;27.00;;;;;24.93;54.94;101172.22;5076899;27;45315;-62
2022/07/20 07:45:04;;;;;;;;;25.00;23.00;;;;;25.06;55.35;101187.50;5077509;28;46634;-63
2022/07/20 07:47:31;;;;;;;;;23.00;22.20;;;;;25.03;54.64;101177.69;5078671;27;45301;-62
2022/07/20 07:49:56;;;;;;;;;22.80;21.80;;;;;25.19;54.94;101191.56;5077528;28;45477;-62
2022/07/20 07:52:22;;;;;;;;;22.50;20.50;;;;;25.35;54.69;101208.19;5078611;27;45720;-61
2022/07/20 07:54:47;;;;;;;;;24.75;21.50;;;;;25.39;54.41;101212.09;5078213;27;46506;-62
2022/07/20 07:57:13;;;;;;;;;21.25;18.50;;;;;25.49;54.53;101211.94;5060470;28;45363;-63
2022/07/20 07:59:38;;;;;;;;;26.75;24.00;;;;;25.50;54.42;101209.97;5060523;28;45421;-63
2022/07/20 08:02:04;;;;;;;;;21.75;21.25;;;;;25.37;54.09;101184.28;5076962;28;45556;-65
2022/07/20 08:04:30;;;;;;;;;28.25;25.50;;;;;25.52;54.03;101205.75;5078339;28;45539;-64
2022/07/20 08:06:55;;;;;;;;;23.75;22.25;;;;;25.60;54.53;101200.59;5060134;27;45464;-64
2022/07/20 08:09:21;;;;;;;;;26.00;23.25;;;;;25.74;54.38;101190.25;5077460;28;45431;-65
2022/07/20 08:11:46;;;;;;;;;22.75;20.75;;;;;25.87;53.55;101210.28;5060377;28;45728;-64
2022/07/20 08:14:12;;;;;;;;;23.25;22.75;;;;;25.81;54.16;101213.19;5059815;28;48074;-63
2022/07/20 08:16:38;;;;;;;;;28.25;22.50;;;;;25.34;53.57;101125.06;5069729;28;45273;-64
2022/07/20 08:19:06;;;;;;;;;24.50;23.75;;;;;25.79;53.88;101209.84;5042547;28;45296;-64
2022/07/20 08:21:32;;;;;;;;;21.20;20.60;;;;;25.78;53.46;101212.97;5040729;27;45569;-63
2022/07/20 08:23:57;;;;;;;;;24.50;23.25;;;;;25.69;54.25;101222.09;5076772;27;46603;-62
2022/07/20 08:26:23;;;;;;;;;21.00;19.50;;;;;25.75;53.79;101225.63;5076932;28;45380;-64
2022/07/20 08:28:49;;;;;;;;;24.25;23.75;;;;;25.77;53.72;101222.53;5077284;28;45454;-64
2022/07/20 08:31:15;;;;;;;;;21.50;19.50;;;;;25.73;53.65;101204.59;5077311;28;45396;-65
2022/07/20 08:33:40;;;;;;;;;28.00;24.25;;;;;25.74;52.98;101204.31;5076950;28;45474;-64
2022/07/20 08:36:06;;;;;;;;;23.25;22.75;;;;;25.75;53.43;101213.56;5093666;27;45360;-66
2022/07/20 08:38:31;;;;;;;;;21.50;20.50;;;;;25.73;53.36;101216.69;5066961;27;45441;-62
2022/07/20 08:40:59;;;;;;;;;21.25;21.25;;;;;25.55;52.84;101193.03;5057982;28;45519;-64
2022/07/20 08:43:25;;;;;;;;;25.20;22.00;;;;;25.56;53.67;101195.56;5056132;28;45306;-65
2022/07/20 08:45:50;;;;;;;;;24.75;24.00;;;;;25.64;53.02;101212.88;5056592;28;45272;-62
2022/07/20 08:48:18;;;;;;;;;25.25;21.75;;;;;25.62;52.91;101220.78;5056520;28;45478;-64
2022/07/20 08:50:43;;;;;;;;;20.00;20.00;;;;;25.63;53.25;101223.28;5056380;28;45493;-62
2022/07/20 08:53:09;;;;;;;;;22.50;21.00;;;;;25.60;53.11;101211.81;5055716;28;46658;-65
2022/07/20 08:55:34;;;;;;;;;20.25;20.25;;;;;25.74;52.58;101220.31;5056298;28;45447;-62
2022/07/20 08:58:00;;;;;;;;;27.00;25.50;;;;;25.73;52.25;101221.47;5056108;28;45359;-64
2022/07/20 09:00:25;;;;;;;;;25.75;23.00;;;;;25.78;52.48;101221.38;5068005;28;45333;-61
2022/07/20 09:02:52;;;;;;;;;22.50;20.00;;;;;25.79;52.77;101215.47;5071498;27;45822;-61
2022/07/20 09:05:20;;;;;;;;;22.00;21.00;;;;;25.76;51.90;101216.06;5070342;27;45439;-62
2022/07/20 09:07:47;;;;;;;;;21.80;20.40;;;;;25.71;52.68;101199.28;5055295;28;45397;-63
2022/07/20 09:10:18;;;;;;;;;18.60;18.60;;;;;25.87;51.97;101213.13;5035722;28;45446;-61
2022/07/20 09:13:05;;;;;;;;;23.00;21.00;;;;;26.09;52.36;101227.34;5054328;28;45468;-62
2022/07/20 09:15:32;;;;;;;;;19.00;17.80;;;;;26.14;51.32;101212.38;5073675;28;45469;-65
2022/07/20 09:18:14;;;;;;;;;17.40;17.40;;;;;26.08;50.77;101191.94;5073588;28;45731;-62
2022/07/20 09:20:47;;;;;;;;;15.60;14.60;;;;;25.93;50.58;101178.16;5043487;27;45448;-63
2022/07/20 09:23:21;;;;;;;;;16.80;14.40;;;;;26.18;50.62;101201.34;5067973;28;46619;-58
2022/07/20 09:25:50;;;;;;;;;18.20;15.80;;;;;25.94;51.06;101210.75;5057902;28;45405;-62
2022/07/20 09:28:15;;;;;;;;;12.20;12.00;;;;;25.96;50.79;101206.50;5075638;28;45387;-65
2022/07/20 09:30:55;;;;;;;;;15.50;15.50;;;;;25.74;50.67;101176.19;5075674;28;45705;-60
2022/07/20 09:33:29;;;;;;;;;13.60;12.40;;;;;25.87;50.65;101201.88;5058576;28;46126;-63
2022/07/20 09:35:55;;;;;;;;;12.20;10.20;;;;;25.85;51.32;101216.22;5059200;28;45573;-61
2022/07/20 09:38:29;;;;;;;;;12.60;12.40;;;;;25.50;51.71;101210.78;5058414;28;45472;-62
2022/07/20 09:40:55;;;;;;;;;16.60;13.40;;;;;25.46;51.74;101195.69;5060107;28;45469;-63
2022/07/20 09:43:28;;;;;;;;;10.50;9.25;;;;;25.52;51.65;101216.09;5058453;28;48117;-62
2022/07/20 09:45:54;;;;;;;;;11.80;11.80;;;;;25.51;51.73;101231.31;5075742;28;45424;-63
2022/07/20 09:48:22;;;;;;;;;12.75;11.75;;;;;25.51;51.57;101226.50;5076022;28;45415;-63
2022/07/20 09:50:47;;;;;;;;;10.80;9.40;;;;;25.57;51.48;101242.19;5075979;28;46206;-62
2022/07/20 09:53:14;;;;;;;;;11.25;10.25;;;;;25.31;51.82;101222.00;5058475;28;45762;-63
2022/07/20 09:55:40;;;;;;;;;9.00;9.00;;;;;25.46;51.95;101235.03;5075528;28;45341;-64
2022/07/20 09:58:06;;;;;;;;;9.80;9.80;;;;;25.40;52.00;101250.28;5075047;28;45369;-60
2022/07/20 10:00:32;;;;;;;;;12.00;9.50;;;;;25.28;52.07;101240.28;5075602;28;45573;-64
2022/07/20 10:02:58;;;;;;;;;10.00;8.60;;;;;25.31;52.32;101253.72;5075192;28;46785;-62
2022/07/20 10:05:24;;;;;;;;;9.60;9.60;;;;;25.27;52.05;101246.19;5058048;28;45418;-63
2022/07/20 10:07:50;;;;;;;;;8.75;8.75;;;;;25.18;52.07;101224.41;5076767;27;45314;-62
2022/07/20 10:10:15;;;;;;;;;8.25;8.25;;;;;25.15;51.91;101227.84;5058628;28;45795;-60
2022/07/20 10:12:41;;;;;;;;;13.25;10.25;;;;;25.26;52.20;101236.97;5057941;28;45458;-61
2022/07/20 10:15:16;;;;;;;;;10.50;8.00;;;;;25.39;51.74;101238.19;5075444;28;45417;-61
2022/07/20 10:17:44;;;;;;;;;11.80;10.20;;;;;25.24;52.01;101205.50;5074877;27;45356;-57
2022/07/20 10:20:30;;;;;;;;;11.40;8.80;;;;;25.57;51.67;101246.97;5058615;28;45382;-60
2022/07/20 10:23:14;;;;;;;;;11.40;9.40;;;;;25.67;51.35;101265.69;5044594;28;45554;-62
2022/07/20 10:25:39;;;;;;;;;9.40;8.40;;;;;25.65;50.98;101254.72;5016215;28;45339;-61
2022/07/20 10:28:33;;;;;;;;;11.25;9.75;;;;;25.65;50.83;101265.13;5005628;28;45523;-59
2022/07/20 10:31:03;;;;;;;;;8.60;7.60;;;;;25.59;51.66;101261.56;5035922;28;45302;-63
2022/07/20 10:33:29;;;;;;;;;8.40;8.40;;;;;25.49;51.40;101227.97;5017629;28;46739;-57
2022/07/20 10:38:39;;;;;;;;;10.80;8.80;;;;;25.64;51.16;101229.72;5023118;28;45364;-57
2022/07/20 10:44:21;;;;;;;;;7.20;6.60;;;;;25.65;50.88;101248.25;5026923;28;45459;-57
2022/07/20 10:46:47;;;;;;;;;13.60;10.40;;;;;25.56;51.15;101246.13;5034359;28;45350;-61
2022/07/20 10:49:12;;;;;;;;;7.80;7.80;;;;;25.50;51.36;101247.31;4985959;28;46148;-63
2022/07/20 10:51:38;;;;;;;;;9.25;9.25;;;;;25.52;51.08;101249.81;5003448;28;45770;-62
2022/07/20 10:54:31;;;;;;;;;7.00;7.00;;;;;25.51;51.50;101242.53;5010455;28;46583;-62
2022/07/20 10:56:58;;;;;;;;;9.40;7.80;;;;;25.36;51.52;101230.38;5017549;28;45515;-62
2022/07/20 10:59:23;;;;;;;;;9.00;8.00;;;;;25.50;51.84;101255.75;5026976;28;45447;-63
2022/07/20 11:01:49;;;;;;;;;9.25;9.00;;;;;25.46;51.69;101251.88;4992706;28;45643;-62
2022/07/20 11:04:15;;;;;;;;;10.75;10.75;;;;;25.43;51.98;101263.69;5006956;28;46579;-62
2022/07/20 11:06:41;;;;;;;;;9.00;8.40;;;;;25.42;52.31;101264.84;4992442;28;45815;-63
2022/07/20 11:09:06;;;;;;;;;10.00;10.00;;;;;25.43;52.32;101269.31;5017406;28;45753;-62
2022/07/20 11:11:34;;;;;;;;;8.50;8.50;;;;;25.39;51.89;101260.66;5017891;28;45436;-62
2022/07/20 11:14:01;;;;;;;;;9.60;8.20;;;;;25.42;52.44;101268.50;5008672;28;45476;-65